sensor_id;sensor_type;location;lat;lon;timestamp;P1;durP1;ratioP1;P2;durP2;ratioP2
26042;SDS011;13818;52.156;5.382;2022-11-20T00:01:25;22.17;;;10.23;;
26042;SDS011;13818;52.156;5.382;2022-11-20T00:03:55;27.75;;;11.88;;
26042;SDS011;13818;52.156;5.382;2022-11-20T00:06:23;27.92;;;10.00;;
26042;SDS011;13818;52.156;5.382;2022-11-20T00:08:51;31.33;;;11.68;;
26042;SDS011;13818;52.156;5.382;2022-11-20T00:11:21;22.83;;;9.27;;
26042;SDS011;13818;52.156;5.382;2022-11-20T00:13:49;20.27;;;8.65;;
26042;SDS011;13818;52.156;5.382;2022-11-20T00:16:18;20.30;;;9.57;;
26042;SDS011;13818;52.156;5.382;2022-11-20T00:18:45;23.80;;;9.90;;
26042;SDS011;13818;52.156;5.382;2022-11-20T00:21:14;26.48;;;9.82;;
26042;SDS011;13818;52.156;5.382;2022-11-20T00:23:42;20.40;;;10.15;;
26042;SDS011;13818;52.156;5.382;2022-11-20T00:26:10;26.70;;;10.00;;
26042;SDS011;13818;52.156;5.382;2022-11-20T00:28:37;19.60;;;9.13;;
26042;SDS011;13818;52.156;5.382;2022-11-20T00:31:04;24.20;;;9.82;;
26042;SDS011;13818;52.156;5.382;2022-11-20T00:33:31;20.23;;;8.75;;
26042;SDS011;13818;52.156;5.382;2022-11-20T00:35:59;26.95;;;9.13;;
26042;SDS011;13818;52.156;5.382;2022-11-20T00:38:27;26.23;;;9.57;;
26042;SDS011;13818;52.156;5.382;2022-11-20T00:40:55;23.30;;;9.25;;
26042;SDS011;13818;52.156;5.382;2022-11-20T00:43:22;23.73;;;10.23;;
26042;SDS011;13818;52.156;5.382;2022-11-20T00:45:49;28.58;;;10.05;;
26042;SDS011;13818;52.156;5.382;2022-11-20T00:48:15;18.58;;;9.60;;
26042;SDS011;13818;52.156;5.382;2022-11-20T00:50:41;24.25;;;11.07;;
26042;SDS011;13818;52.156;5.382;2022-11-20T00:53:08;20.70;;;8.38;;
26042;SDS011;13818;52.156;5.382;2022-11-20T00:55:36;21.50;;;9.32;;
26042;SDS011;13818;52.156;5.382;2022-11-20T00:58:02;20.98;;;9.75;;
26042;SDS011;13818;52.156;5.382;2022-11-20T01:00:29;24.50;;;10.05;;
26042;SDS011;13818;52.156;5.382;2022-11-20T01:02:55;20.77;;;8.23;;
26042;SDS011;13818;52.156;5.382;2022-11-20T01:05:21;24.85;;;9.20;;
26042;SDS011;13818;52.156;5.382;2022-11-20T01:07:48;20.23;;;7.90;;
26042;SDS011;13818;52.156;5.382;2022-11-20T01:10:14;18.70;;;8.43;;
26042;SDS011;13818;52.156;5.382;2022-11-20T01:12:42;21.25;;;7.90;;
26042;SDS011;13818;52.156;5.382;2022-11-20T01:15:29;19.15;;;8.88;;
26042;SDS011;13818;52.156;5.382;2022-11-20T01:17:55;17.50;;;8.50;;
26042;SDS011;13818;52.156;5.382;2022-11-20T01:20:22;22.85;;;9.35;;
26042;SDS011;13818;52.156;5.382;2022-11-20T01:22:48;27.88;;;8.88;;
26042;SDS011;13818;52.156;5.382;2022-11-20T01:25:14;24.92;;;8.77;;
26042;SDS011;13818;52.156;5.382;2022-11-20T01:27:42;25.35;;;9.82;;
26042;SDS011;13818;52.156;5.382;2022-11-20T01:30:09;29.95;;;9.98;;
26042;SDS011;13818;52.156;5.382;2022-11-20T01:32:36;20.50;;;8.18;;
26042;SDS011;13818;52.156;5.382;2022-11-20T01:35:03;18.92;;;8.73;;
26042;SDS011;13818;52.156;5.382;2022-11-20T01:37:29;19.77;;;8.05;;
26042;SDS011;13818;52.156;5.382;2022-11-20T01:39:56;19.65;;;8.40;;
26042;SDS011;13818;52.156;5.382;2022-11-20T01:42:22;22.05;;;8.60;;
26042;SDS011;13818;52.156;5.382;2022-11-20T01:48:08;15.95;;;7.63;;
26042;SDS011;13818;52.156;5.382;2022-11-20T01:50:34;19.80;;;8.23;;
26042;SDS011;13818;52.156;5.382;2022-11-20T01:53:02;21.35;;;8.80;;
26042;SDS011;13818;52.156;5.382;2022-11-20T01:55:32;19.58;;;8.75;;
26042;SDS011;13818;52.156;5.382;2022-11-20T01:58:02;22.75;;;8.55;;
26042;SDS011;13818;52.156;5.382;2022-11-20T02:00:30;19.52;;;8.60;;
26042;SDS011;13818;52.156;5.382;2022-11-20T02:02:57;19.85;;;8.35;;
26042;SDS011;13818;52.156;5.382;2022-11-20T02:05:27;16.55;;;7.88;;
26042;SDS011;13818;52.156;5.382;2022-11-20T02:07:58;22.17;;;9.52;;
26042;SDS011;13818;52.156;5.382;2022-11-20T02:10:25;19.80;;;9.77;;
26042;SDS011;13818;52.156;5.382;2022-11-20T02:12:53;24.50;;;9.88;;
26042;SDS011;13818;52.156;5.382;2022-11-20T02:15:37;22.55;;;8.82;;
26042;SDS011;13818;52.156;5.382;2022-11-20T02:18:04;21.92;;;8.65;;
26042;SDS011;13818;52.156;5.382;2022-11-20T02:20:33;19.55;;;9.63;;
26042;SDS011;13818;52.156;5.382;2022-11-20T02:23:01;21.77;;;8.38;;
26042;SDS011;13818;52.156;5.382;2022-11-20T02:25:32;24.50;;;9.10;;
26042;SDS011;13818;52.156;5.382;2022-11-20T02:28:01;22.00;;;8.25;;
26042;SDS011;13818;52.156;5.382;2022-11-20T02:30:28;22.67;;;8.80;;
26042;SDS011;13818;52.156;5.382;2022-11-20T02:32:54;18.73;;;8.25;;
26042;SDS011;13818;52.156;5.382;2022-11-20T02:35:40;25.52;;;9.48;;
26042;SDS011;13818;52.156;5.382;2022-11-20T02:38:09;20.23;;;7.65;;
26042;SDS011;13818;52.156;5.382;2022-11-20T02:40:37;16.90;;;8.65;;
26042;SDS011;13818;52.156;5.382;2022-11-20T02:43:03;20.75;;;8.48;;
26042;SDS011;13818;52.156;5.382;2022-11-20T02:45:30;21.38;;;8.95;;
26042;SDS011;13818;52.156;5.382;2022-11-20T02:47:56;19.42;;;8.00;;
26042;SDS011;13818;52.156;5.382;2022-11-20T02:50:23;22.85;;;8.68;;
26042;SDS011;13818;52.156;5.382;2022-11-20T02:52:49;22.42;;;8.27;;
26042;SDS011;13818;52.156;5.382;2022-11-20T02:55:16;19.63;;;8.85;;
26042;SDS011;13818;52.156;5.382;2022-11-20T02:57:44;25.35;;;9.15;;
26042;SDS011;13818;52.156;5.382;2022-11-20T03:00:11;19.80;;;8.18;;
26042;SDS011;13818;52.156;5.382;2022-11-20T03:02:38;27.52;;;9.85;;
26042;SDS011;13818;52.156;5.382;2022-11-20T03:05:04;24.23;;;9.18;;
26042;SDS011;13818;52.156;5.382;2022-11-20T03:07:31;23.45;;;8.23;;
26042;SDS011;13818;52.156;5.382;2022-11-20T03:09:57;22.95;;;9.23;;
26042;SDS011;13818;52.156;5.382;2022-11-20T03:12:24;16.48;;;7.70;;
26042;SDS011;13818;52.156;5.382;2022-11-20T03:14:51;18.20;;;7.97;;
26042;SDS011;13818;52.156;5.382;2022-11-20T03:17:18;19.40;;;8.73;;
26042;SDS011;13818;52.156;5.382;2022-11-20T03:19:44;18.30;;;8.25;;
26042;SDS011;13818;52.156;5.382;2022-11-20T03:22:11;20.58;;;8.60;;
26042;SDS011;13818;52.156;5.382;2022-11-20T03:24:37;21.90;;;9.77;;
26042;SDS011;13818;52.156;5.382;2022-11-20T03:27:04;25.05;;;9.05;;
26042;SDS011;13818;52.156;5.382;2022-11-20T03:29:30;19.50;;;7.60;;
26042;SDS011;13818;52.156;5.382;2022-11-20T03:31:58;24.45;;;9.68;;
26042;SDS011;13818;52.156;5.382;2022-11-20T03:34:25;21.15;;;8.02;;
26042;SDS011;13818;52.156;5.382;2022-11-20T03:36:51;17.63;;;8.38;;
26042;SDS011;13818;52.156;5.382;2022-11-20T03:39:18;21.85;;;7.22;;
26042;SDS011;13818;52.156;5.382;2022-11-20T03:41:44;17.35;;;6.72;;
26042;SDS011;13818;52.156;5.382;2022-11-20T03:44:11;18.13;;;7.93;;
26042;SDS011;13818;52.156;5.382;2022-11-20T03:46:37;20.42;;;7.45;;
26042;SDS011;13818;52.156;5.382;2022-11-20T03:49:06;19.52;;;8.45;;
26042;SDS011;13818;52.156;5.382;2022-11-20T03:51:33;21.65;;;8.05;;
26042;SDS011;13818;52.156;5.382;2022-11-20T03:54:02;18.25;;;7.95;;
26042;SDS011;13818;52.156;5.382;2022-11-20T03:58:57;14.90;;;6.55;;
26042;SDS011;13818;52.156;5.382;2022-11-20T04:01:25;17.13;;;7.32;;
26042;SDS011;13818;52.156;5.382;2022-11-20T04:03:53;18.58;;;6.60;;
26042;SDS011;13818;52.156;5.382;2022-11-20T04:06:23;20.13;;;8.83;;
26042;SDS011;13818;52.156;5.382;2022-11-20T04:08:53;18.35;;;7.65;;
26042;SDS011;13818;52.156;5.382;2022-11-20T04:11:21;17.63;;;7.72;;
26042;SDS011;13818;52.156;5.382;2022-11-20T04:13:49;15.55;;;6.55;;
26042;SDS011;13818;52.156;5.382;2022-11-20T04:16:17;17.40;;;6.60;;
26042;SDS011;13818;52.156;5.382;2022-11-20T04:18:44;21.90;;;6.47;;
26042;SDS011;13818;52.156;5.382;2022-11-20T04:21:11;18.05;;;8.05;;
26042;SDS011;13818;52.156;5.382;2022-11-20T04:23:39;20.95;;;7.40;;
26042;SDS011;13818;52.156;5.382;2022-11-20T04:26:06;16.50;;;6.93;;
26042;SDS011;13818;52.156;5.382;2022-11-20T04:28:35;18.40;;;8.52;;
26042;SDS011;13818;52.156;5.382;2022-11-20T04:31:03;13.68;;;7.53;;
26042;SDS011;13818;52.156;5.382;2022-11-20T04:33:30;17.27;;;7.32;;
26042;SDS011;13818;52.156;5.382;2022-11-20T04:35:59;17.77;;;7.97;;
26042;SDS011;13818;52.156;5.382;2022-11-20T04:38:27;21.25;;;7.43;;
26042;SDS011;13818;52.156;5.382;2022-11-20T04:40:57;16.40;;;7.00;;
26042;SDS011;13818;52.156;5.382;2022-11-20T04:43:24;16.05;;;7.55;;
26042;SDS011;13818;52.156;5.382;2022-11-20T04:45:51;21.08;;;7.85;;
26042;SDS011;13818;52.156;5.382;2022-11-20T04:48:17;17.85;;;7.60;;
26042;SDS011;13818;52.156;5.382;2022-11-20T04:50:44;21.35;;;7.80;;
26042;SDS011;13818;52.156;5.382;2022-11-20T04:53:10;19.27;;;6.93;;
26042;SDS011;13818;52.156;5.382;2022-11-20T04:55:36;15.25;;;7.40;;
26042;SDS011;13818;52.156;5.382;2022-11-20T04:58:04;25.63;;;8.70;;
26042;SDS011;13818;52.156;5.382;2022-11-20T05:00:31;19.83;;;8.30;;
26042;SDS011;13818;52.156;5.382;2022-11-20T05:02:57;15.50;;;7.18;;
26042;SDS011;13818;52.156;5.382;2022-11-20T05:05:24;19.73;;;8.95;;
26042;SDS011;13818;52.156;5.382;2022-11-20T05:07:50;16.85;;;8.05;;
26042;SDS011;13818;52.156;5.382;2022-11-20T05:10:16;20.23;;;8.65;;
26042;SDS011;13818;52.156;5.382;2022-11-20T05:12:43;18.52;;;7.78;;
26042;SDS011;13818;52.156;5.382;2022-11-20T05:15:11;24.10;;;9.15;;
26042;SDS011;13818;52.156;5.382;2022-11-20T05:17:37;19.60;;;7.90;;
26042;SDS011;13818;52.156;5.382;2022-11-20T05:20:04;25.40;;;8.32;;
26042;SDS011;13818;52.156;5.382;2022-11-20T05:22:31;20.52;;;8.90;;
26042;SDS011;13818;52.156;5.382;2022-11-20T05:24:57;21.60;;;8.45;;
26042;SDS011;13818;52.156;5.382;2022-11-20T05:27:24;23.05;;;9.32;;
26042;SDS011;13818;52.156;5.382;2022-11-20T05:29:50;20.15;;;8.23;;
26042;SDS011;13818;52.156;5.382;2022-11-20T05:32:18;12.55;;;6.90;;
26042;SDS011;13818;52.156;5.382;2022-11-20T05:34:44;14.23;;;7.15;;
26042;SDS011;13818;52.156;5.382;2022-11-20T05:37:11;23.85;;;9.57;;
26042;SDS011;13818;52.156;5.382;2022-11-20T05:39:37;17.88;;;8.82;;
26042;SDS011;13818;52.156;5.382;2022-11-20T05:42:03;16.45;;;6.30;;
26042;SDS011;13818;52.156;5.382;2022-11-20T05:44:47;19.27;;;7.20;;
26042;SDS011;13818;52.156;5.382;2022-11-20T05:47:14;20.92;;;8.27;;
26042;SDS011;13818;52.156;5.382;2022-11-20T05:49:42;14.95;;;7.35;;
26042;SDS011;13818;52.156;5.382;2022-11-20T05:52:09;20.35;;;8.38;;
26042;SDS011;13818;52.156;5.382;2022-11-20T05:54:35;22.83;;;9.52;;
26042;SDS011;13818;52.156;5.382;2022-11-20T05:57:02;17.63;;;7.30;;
26042;SDS011;13818;52.156;5.382;2022-11-20T05:59:28;19.65;;;8.10;;
26042;SDS011;13818;52.156;5.382;2022-11-20T06:01:55;22.92;;;7.60;;
26042;SDS011;13818;52.156;5.382;2022-11-20T06:04:21;21.65;;;7.47;;
26042;SDS011;13818;52.156;5.382;2022-11-20T06:06:49;17.10;;;7.65;;
26042;SDS011;13818;52.156;5.382;2022-11-20T06:09:16;20.65;;;8.27;;
26042;SDS011;13818;52.156;5.382;2022-11-20T06:11:42;18.05;;;7.10;;
26042;SDS011;13818;52.156;5.382;2022-11-20T06:14:09;21.63;;;9.05;;
26042;SDS011;13818;52.156;5.382;2022-11-20T06:16:35;26.80;;;10.02;;
26042;SDS011;13818;52.156;5.382;2022-11-20T06:19:02;21.38;;;9.90;;
26042;SDS011;13818;52.156;5.382;2022-11-20T06:21:28;27.45;;;9.93;;
26042;SDS011;13818;52.156;5.382;2022-11-20T06:23:56;20.55;;;8.13;;
26042;SDS011;13818;52.156;5.382;2022-11-20T06:26:23;19.02;;;8.18;;
26042;SDS011;13818;52.156;5.382;2022-11-20T06:28:51;21.83;;;9.67;;
26042;SDS011;13818;52.156;5.382;2022-11-20T06:31:18;16.40;;;7.45;;
26042;SDS011;13818;52.156;5.382;2022-11-20T06:33:46;11.95;;;6.03;;
26042;SDS011;13818;52.156;5.382;2022-11-20T06:36:14;17.63;;;8.20;;
26042;SDS011;13818;52.156;5.382;2022-11-20T06:38:41;18.75;;;7.75;;
26042;SDS011;13818;52.156;5.382;2022-11-20T06:41:10;17.83;;;7.13;;
26042;SDS011;13818;52.156;5.382;2022-11-20T06:43:38;14.13;;;6.03;;
26042;SDS011;13818;52.156;5.382;2022-11-20T06:46:05;20.95;;;8.30;;
26042;SDS011;13818;52.156;5.382;2022-11-20T06:48:32;23.92;;;8.63;;
26042;SDS011;13818;52.156;5.382;2022-11-20T06:50:58;15.20;;;7.88;;
26042;SDS011;13818;52.156;5.382;2022-11-20T06:53:25;18.27;;;7.60;;
26042;SDS011;13818;52.156;5.382;2022-11-20T06:55:51;17.75;;;8.07;;
26042;SDS011;13818;52.156;5.382;2022-11-20T06:58:22;22.00;;;8.45;;
26042;SDS011;13818;52.156;5.382;2022-11-20T07:00:49;18.20;;;7.40;;
26042;SDS011;13818;52.156;5.382;2022-11-20T07:03:15;18.27;;;8.23;;
26042;SDS011;13818;52.156;5.382;2022-11-20T07:05:43;19.50;;;7.75;;
26042;SDS011;13818;52.156;5.382;2022-11-20T07:08:10;21.83;;;7.50;;
26042;SDS011;13818;52.156;5.382;2022-11-20T07:10:38;19.80;;;8.48;;
26042;SDS011;13818;52.156;5.382;2022-11-20T07:13:04;19.50;;;9.48;;
26042;SDS011;13818;52.156;5.382;2022-11-20T07:15:33;20.38;;;8.20;;
26042;SDS011;13818;52.156;5.382;2022-11-20T07:18:00;17.45;;;8.15;;
26042;SDS011;13818;52.156;5.382;2022-11-20T07:20:26;15.05;;;6.95;;
26042;SDS011;13818;52.156;5.382;2022-11-20T07:22:53;16.60;;;8.18;;
26042;SDS011;13818;52.156;5.382;2022-11-20T07:25:20;16.05;;;7.43;;
26042;SDS011;13818;52.156;5.382;2022-11-20T07:27:47;13.75;;;7.40;;
26042;SDS011;13818;52.156;5.382;2022-11-20T07:30:13;14.38;;;5.88;;
26042;SDS011;13818;52.156;5.382;2022-11-20T07:32:41;14.38;;;6.78;;
26042;SDS011;13818;52.156;5.382;2022-11-20T07:35:08;21.67;;;7.18;;
26042;SDS011;13818;52.156;5.382;2022-11-20T07:37:34;22.73;;;8.25;;
26042;SDS011;13818;52.156;5.382;2022-11-20T07:40:01;15.75;;;6.53;;
26042;SDS011;13818;52.156;5.382;2022-11-20T07:42:27;17.58;;;7.55;;
26042;SDS011;13818;52.156;5.382;2022-11-20T07:44:54;16.20;;;7.22;;
26042;SDS011;13818;52.156;5.382;2022-11-20T07:47:20;29.15;;;7.63;;
26042;SDS011;13818;52.156;5.382;2022-11-20T07:49:48;20.30;;;8.55;;
26042;SDS011;13818;52.156;5.382;2022-11-20T07:52:14;23.60;;;9.13;;
26042;SDS011;13818;52.156;5.382;2022-11-20T07:54:40;18.85;;;7.93;;
26042;SDS011;13818;52.156;5.382;2022-11-20T07:57:07;16.85;;;7.47;;
26042;SDS011;13818;52.156;5.382;2022-11-20T07:59:33;27.67;;;9.50;;
26042;SDS011;13818;52.156;5.382;2022-11-20T08:02:00;19.80;;;9.05;;
26042;SDS011;13818;52.156;5.382;2022-11-20T08:04:26;18.83;;;6.75;;
26042;SDS011;13818;52.156;5.382;2022-11-20T08:06:54;20.40;;;9.07;;
26042;SDS011;13818;52.156;5.382;2022-11-20T08:09:21;19.92;;;9.02;;
26042;SDS011;13818;52.156;5.382;2022-11-20T08:11:47;16.90;;;8.27;;
26042;SDS011;13818;52.156;5.382;2022-11-20T08:14:31;17.15;;;8.10;;
26042;SDS011;13818;52.156;5.382;2022-11-20T08:16:58;22.75;;;9.07;;
26042;SDS011;13818;52.156;5.382;2022-11-20T08:19:25;25.48;;;10.23;;
26042;SDS011;13818;52.156;5.382;2022-11-20T08:21:51;20.20;;;7.90;;
26042;SDS011;13818;52.156;5.382;2022-11-20T08:24:19;22.23;;;8.75;;
26042;SDS011;13818;52.156;5.382;2022-11-20T08:26:45;17.42;;;7.63;;
26042;SDS011;13818;52.156;5.382;2022-11-20T08:29:12;21.30;;;8.15;;
26042;SDS011;13818;52.156;5.382;2022-11-20T08:31:38;18.65;;;9.00;;
26042;SDS011;13818;52.156;5.382;2022-11-20T08:34:04;17.75;;;7.43;;
26042;SDS011;13818;52.156;5.382;2022-11-20T08:36:32;19.00;;;8.75;;
26042;SDS011;13818;52.156;5.382;2022-11-20T08:39:00;25.48;;;10.07;;
26042;SDS011;13818;52.156;5.382;2022-11-20T08:41:28;24.02;;;7.63;;
26042;SDS011;13818;52.156;5.382;2022-11-20T08:43:58;22.83;;;8.25;;
26042;SDS011;13818;52.156;5.382;2022-11-20T08:46:27;23.95;;;8.18;;
26042;SDS011;13818;52.156;5.382;2022-11-20T08:48:56;17.25;;;8.50;;
26042;SDS011;13818;52.156;5.382;2022-11-20T08:51:23;19.90;;;9.00;;
26042;SDS011;13818;52.156;5.382;2022-11-20T08:53:49;27.25;;;9.00;;
26042;SDS011;13818;52.156;5.382;2022-11-20T08:56:17;21.25;;;8.68;;
26042;SDS011;13818;52.156;5.382;2022-11-20T08:58:45;21.42;;;9.18;;
26042;SDS011;13818;52.156;5.382;2022-11-20T09:01:11;21.45;;;8.43;;
26042;SDS011;13818;52.156;5.382;2022-11-20T09:03:38;21.85;;;8.13;;
26042;SDS011;13818;52.156;5.382;2022-11-20T09:06:05;40.83;;;9.07;;
26042;SDS011;13818;52.156;5.382;2022-11-20T09:08:33;25.00;;;10.63;;
26042;SDS011;13818;52.156;5.382;2022-11-20T09:11:01;22.67;;;10.80;;
26042;SDS011;13818;52.156;5.382;2022-11-20T09:13:28;23.05;;;9.20;;
26042;SDS011;13818;52.156;5.382;2022-11-20T09:15:57;28.20;;;10.57;;
26042;SDS011;13818;52.156;5.382;2022-11-20T09:18:26;20.20;;;10.45;;
26042;SDS011;13818;52.156;5.382;2022-11-20T09:20:55;24.00;;;10.20;;
26042;SDS011;13818;52.156;5.382;2022-11-20T09:23:22;17.30;;;9.05;;
26042;SDS011;13818;52.156;5.382;2022-11-20T09:25:49;22.63;;;10.52;;
26042;SDS011;13818;52.156;5.382;2022-11-20T09:28:15;19.05;;;8.48;;
26042;SDS011;13818;52.156;5.382;2022-11-20T09:30:43;21.70;;;9.15;;
26042;SDS011;13818;52.156;5.382;2022-11-20T09:33:11;18.95;;;8.80;;
26042;SDS011;13818;52.156;5.382;2022-11-20T09:35:37;22.73;;;9.55;;
26042;SDS011;13818;52.156;5.382;2022-11-20T09:38:04;26.38;;;10.35;;
26042;SDS011;13818;52.156;5.382;2022-11-20T09:40:31;22.75;;;9.70;;
26042;SDS011;13818;52.156;5.382;2022-11-20T09:43:01;21.25;;;9.90;;
26042;SDS011;13818;52.156;5.382;2022-11-20T09:45:37;22.55;;;9.20;;
26042;SDS011;13818;52.156;5.382;2022-11-20T09:48:31;24.48;;;10.27;;
26042;SDS011;13818;52.156;5.382;2022-11-20T09:51:08;23.30;;;8.80;;
26042;SDS011;13818;52.156;5.382;2022-11-20T09:53:46;23.48;;;9.48;;
26042;SDS011;13818;52.156;5.382;2022-11-20T09:56:23;23.25;;;9.75;;
26042;SDS011;13818;52.156;5.382;2022-11-20T09:58:52;22.15;;;9.70;;
26042;SDS011;13818;52.156;5.382;2022-11-20T10:01:26;25.23;;;9.73;;
26042;SDS011;13818;52.156;5.382;2022-11-20T10:03:57;23.48;;;10.20;;
26042;SDS011;13818;52.156;5.382;2022-11-20T10:06:28;30.35;;;11.38;;
26042;SDS011;13818;52.156;5.382;2022-11-20T10:08:59;29.50;;;11.80;;
26042;SDS011;13818;52.156;5.382;2022-11-20T10:11:37;21.67;;;9.48;;
26042;SDS011;13818;52.156;5.382;2022-11-20T10:14:16;28.17;;;11.40;;
26042;SDS011;13818;52.156;5.382;2022-11-20T10:16:53;37.80;;;12.57;;
26042;SDS011;13818;52.156;5.382;2022-11-20T10:19:33;25.50;;;10.00;;
26042;SDS011;13818;52.156;5.382;2022-11-20T10:22:14;33.25;;;11.82;;
26042;SDS011;13818;52.156;5.382;2022-11-20T10:24:55;20.13;;;10.23;;
26042;SDS011;13818;52.156;5.382;2022-11-20T10:27:39;21.75;;;7.95;;
26042;SDS011;13818;52.156;5.382;2022-11-20T10:30:22;23.60;;;10.25;;
26042;SDS011;13818;52.156;5.382;2022-11-20T10:32:51;26.67;;;11.10;;
26042;SDS011;13818;52.156;5.382;2022-11-20T10:35:21;22.75;;;9.45;;
26042;SDS011;13818;52.156;5.382;2022-11-20T10:37:54;28.60;;;10.82;;
26042;SDS011;13818;52.156;5.382;2022-11-20T10:40:27;30.77;;;11.10;;
26042;SDS011;13818;52.156;5.382;2022-11-20T10:42:59;31.67;;;12.05;;
26042;SDS011;13818;52.156;5.382;2022-11-20T10:45:36;31.50;;;12.20;;
26042;SDS011;13818;52.156;5.382;2022-11-20T10:48:12;31.58;;;11.48;;
26042;SDS011;13818;52.156;5.382;2022-11-20T10:50:47;36.90;;;13.30;;
26042;SDS011;13818;52.156;5.382;2022-11-20T10:53:25;29.00;;;12.85;;
26042;SDS011;13818;52.156;5.382;2022-11-20T10:56:05;21.00;;;8.82;;
26042;SDS011;13818;52.156;5.382;2022-11-20T10:58:38;25.38;;;11.75;;
26042;SDS011;13818;52.156;5.382;2022-11-20T11:01:13;31.27;;;12.95;;
26042;SDS011;13818;52.156;5.382;2022-11-20T11:03:41;30.92;;;11.80;;
26042;SDS011;13818;52.156;5.382;2022-11-20T11:06:12;27.40;;;11.32;;
26042;SDS011;13818;52.156;5.382;2022-11-20T11:08:47;30.33;;;11.98;;
26042;SDS011;13818;52.156;5.382;2022-11-20T11:11:18;36.15;;;11.85;;
26042;SDS011;13818;52.156;5.382;2022-11-20T11:13:48;30.58;;;12.10;;
26042;SDS011;13818;52.156;5.382;2022-11-20T11:16:18;30.80;;;12.48;;
26042;SDS011;13818;52.156;5.382;2022-11-20T11:18:47;29.35;;;12.73;;
26042;SDS011;13818;52.156;5.382;2022-11-20T11:21:19;31.77;;;12.07;;
26042;SDS011;13818;52.156;5.382;2022-11-20T11:23:56;28.25;;;12.48;;
26042;SDS011;13818;52.156;5.382;2022-11-20T11:26:25;36.05;;;12.80;;
26042;SDS011;13818;52.156;5.382;2022-11-20T11:28:53;29.63;;;11.77;;
26042;SDS011;13818;52.156;5.382;2022-11-20T11:31:24;31.05;;;13.15;;
26042;SDS011;13818;52.156;5.382;2022-11-20T11:33:52;33.55;;;12.65;;
26042;SDS011;13818;52.156;5.382;2022-11-20T11:36:31;32.28;;;12.63;;
26042;SDS011;13818;52.156;5.382;2022-11-20T11:38:59;31.55;;;13.13;;
26042;SDS011;13818;52.156;5.382;2022-11-20T11:41:28;33.55;;;13.45;;
26042;SDS011;13818;52.156;5.382;2022-11-20T11:44:00;37.65;;;13.80;;
26042;SDS011;13818;52.156;5.382;2022-11-20T11:46:56;39.28;;;13.32;;
26042;SDS011;13818;52.156;5.382;2022-11-20T11:49:23;34.13;;;14.70;;
26042;SDS011;13818;52.156;5.382;2022-11-20T11:51:56;40.58;;;15.82;;
26042;SDS011;13818;52.156;5.382;2022-11-20T11:54:30;33.92;;;13.02;;
26042;SDS011;13818;52.156;5.382;2022-11-20T11:57:01;34.42;;;13.75;;
26042;SDS011;13818;52.156;5.382;2022-11-20T11:59:37;29.42;;;12.60;;
26042;SDS011;13818;52.156;5.382;2022-11-20T12:02:13;34.13;;;14.98;;
26042;SDS011;13818;52.156;5.382;2022-11-20T12:07:22;34.47;;;13.30;;
26042;SDS011;13818;52.156;5.382;2022-11-20T12:09:57;33.40;;;12.32;;
26042;SDS011;13818;52.156;5.382;2022-11-20T12:12:25;30.13;;;12.38;;
26042;SDS011;13818;52.156;5.382;2022-11-20T12:14:57;29.42;;;13.07;;
26042;SDS011;13818;52.156;5.382;2022-11-20T12:17:24;41.33;;;15.90;;
26042;SDS011;13818;52.156;5.382;2022-11-20T12:19:50;42.78;;;15.13;;
26042;SDS011;13818;52.156;5.382;2022-11-20T12:22:20;38.83;;;16.05;;
26042;SDS011;13818;52.156;5.382;2022-11-20T12:27:39;37.83;;;14.70;;
26042;SDS011;13818;52.156;5.382;2022-11-20T12:30:15;35.75;;;12.85;;
26042;SDS011;13818;52.156;5.382;2022-11-20T12:35:44;33.55;;;13.55;;
26042;SDS011;13818;52.156;5.382;2022-11-20T12:41:22;37.58;;;14.05;;
26042;SDS011;13818;52.156;5.382;2022-11-20T12:44:24;29.05;;;12.60;;
26042;SDS011;13818;52.156;5.382;2022-11-20T12:47:19;38.20;;;13.90;;
26042;SDS011;13818;52.156;5.382;2022-11-20T12:49:56;36.08;;;13.13;;
26042;SDS011;13818;52.156;5.382;2022-11-20T12:52:37;41.88;;;13.82;;
26042;SDS011;13818;52.156;5.382;2022-11-20T12:55:16;37.90;;;15.07;;
26042;SDS011;13818;52.156;5.382;2022-11-20T12:57:54;45.85;;;15.55;;
26042;SDS011;13818;52.156;5.382;2022-11-20T13:00:24;35.67;;;12.30;;
26042;SDS011;13818;52.156;5.382;2022-11-20T13:03:06;28.73;;;11.27;;
26042;SDS011;13818;52.156;5.382;2022-11-20T13:05:46;35.13;;;13.90;;
26042;SDS011;13818;52.156;5.382;2022-11-20T13:08:20;39.78;;;14.05;;
26042;SDS011;13818;52.156;5.382;2022-11-20T13:10:51;37.13;;;13.60;;
26042;SDS011;13818;52.156;5.382;2022-11-20T13:13:29;37.10;;;12.43;;
26042;SDS011;13818;52.156;5.382;2022-11-20T13:16:02;52.85;;;15.80;;
26042;SDS011;13818;52.156;5.382;2022-11-20T13:18:36;38.15;;;14.27;;
26042;SDS011;13818;52.156;5.382;2022-11-20T13:21:13;34.83;;;14.80;;
26042;SDS011;13818;52.156;5.382;2022-11-20T13:23:40;30.65;;;11.75;;
26042;SDS011;13818;52.156;5.382;2022-11-20T13:26:14;34.55;;;14.80;;
26042;SDS011;13818;52.156;5.382;2022-11-20T13:28:44;38.55;;;15.55;;
26042;SDS011;13818;52.156;5.382;2022-11-20T13:31:23;30.80;;;13.43;;
26042;SDS011;13818;52.156;5.382;2022-11-20T13:33:55;45.13;;;15.20;;
26042;SDS011;13818;52.156;5.382;2022-11-20T13:36:24;40.28;;;16.38;;
26042;SDS011;13818;52.156;5.382;2022-11-20T13:38:52;37.10;;;14.35;;
26042;SDS011;13818;52.156;5.382;2022-11-20T13:41:24;36.60;;;15.20;;
26042;SDS011;13818;52.156;5.382;2022-11-20T13:44:05;35.83;;;13.63;;
26042;SDS011;13818;52.156;5.382;2022-11-20T13:46:40;33.22;;;12.15;;
26042;SDS011;13818;52.156;5.382;2022-11-20T13:49:09;33.42;;;14.23;;
26042;SDS011;13818;52.156;5.382;2022-11-20T13:51:42;36.30;;;15.00;;
26042;SDS011;13818;52.156;5.382;2022-11-20T13:54:22;38.88;;;15.55;;
26042;SDS011;13818;52.156;5.382;2022-11-20T13:57:21;41.55;;;15.55;;
26042;SDS011;13818;52.156;5.382;2022-11-20T14:00:05;44.00;;;14.65;;
26042;SDS011;13818;52.156;5.382;2022-11-20T14:02:37;35.22;;;14.27;;
26042;SDS011;13818;52.156;5.382;2022-11-20T14:05:04;35.28;;;15.93;;
26042;SDS011;13818;52.156;5.382;2022-11-20T14:07:32;36.47;;;14.50;;
26042;SDS011;13818;52.156;5.382;2022-11-20T14:10:03;39.00;;;15.43;;
26042;SDS011;13818;52.156;5.382;2022-11-20T14:12:30;45.17;;;15.90;;
26042;SDS011;13818;52.156;5.382;2022-11-20T14:14:59;43.42;;;16.60;;
26042;SDS011;13818;52.156;5.382;2022-11-20T14:17:30;36.13;;;14.23;;
26042;SDS011;13818;52.156;5.382;2022-11-20T14:19:59;37.58;;;11.05;;
26042;SDS011;13818;52.156;5.382;2022-11-20T14:22:29;40.35;;;14.40;;
26042;SDS011;13818;52.156;5.382;2022-11-20T14:25:04;36.35;;;12.60;;
26042;SDS011;13818;52.156;5.382;2022-11-20T14:27:33;32.42;;;14.88;;
26042;SDS011;13818;52.156;5.382;2022-11-20T14:30:02;25.80;;;10.63;;
26042;SDS011;13818;52.156;5.382;2022-11-20T14:32:31;44.00;;;16.48;;
26042;SDS011;13818;52.156;5.382;2022-11-20T14:35:02;43.70;;;16.13;;
26042;SDS011;13818;52.156;5.382;2022-11-20T14:37:33;41.80;;;15.40;;
26042;SDS011;13818;52.156;5.382;2022-11-20T14:40:05;46.97;;;14.80;;
26042;SDS011;13818;52.156;5.382;2022-11-20T14:42:47;30.10;;;12.60;;
26042;SDS011;13818;52.156;5.382;2022-11-20T14:45:14;41.42;;;13.55;;
26042;SDS011;13818;52.156;5.382;2022-11-20T14:47:42;38.85;;;14.63;;
26042;SDS011;13818;52.156;5.382;2022-11-20T14:50:12;33.92;;;16.10;;
26042;SDS011;13818;52.156;5.382;2022-11-20T14:52:49;38.53;;;15.00;;
26042;SDS011;13818;52.156;5.382;2022-11-20T14:55:24;49.05;;;17.50;;
26042;SDS011;13818;52.156;5.382;2022-11-20T14:57:54;46.70;;;16.02;;
26042;SDS011;13818;52.156;5.382;2022-11-20T15:00:22;46.90;;;15.68;;
26042;SDS011;13818;52.156;5.382;2022-11-20T15:02:51;46.28;;;18.10;;